createdAt,value
2023-02-18T00:01:43.341Z,100.00
2023-02-18T00:04:12.551Z,100.00
2023-02-18T00:06:42.106Z,100.00
2023-02-18T00:09:11.164Z,100.00
2023-02-18T00:11:39.735Z,100.00
2023-02-18T00:14:11.411Z,100.00
2023-02-18T00:16:41.656Z,100.00
2023-02-18T00:19:18.517Z,100.00
2023-02-18T00:21:48.297Z,100.00
2023-02-18T00:24:17.226Z,100.00
2023-02-18T00:26:46.709Z,100.00
2023-02-18T00:29:14.780Z,100.00
2023-02-18T00:31:45.916Z,100.00
2023-02-18T00:34:15.130Z,100.00
2023-02-18T00:36:43.447Z,100.00
2023-02-18T00:39:12.724Z,100.00
2023-02-18T00:41:42.218Z,100.00
2023-02-18T00:44:11.150Z,100.00
2023-02-18T00:46:39.719Z,100.00
2023-02-18T00:49:10.499Z,100.00
2023-02-18T00:51:39.163Z,100.00
2023-02-18T00:54:09.877Z,100.00
2023-02-18T00:56:38.877Z,100.00
2023-02-18T00:59:07.023Z,100.00
2023-02-18T01:01:36.624Z,100.00
2023-02-18T01:04:09.127Z,100.00
2023-02-18T01:06:38.624Z,100.00
2023-02-18T01:09:06.790Z,100.00
2023-02-18T01:11:35.094Z,100.00
2023-02-18T01:14:03.890Z,100.00
2023-02-18T01:16:32.954Z,100.00
2023-02-18T01:19:01.151Z,100.00
2023-02-18T01:21:29.264Z,100.00
2023-02-18T01:23:58.582Z,100.00
2023-02-18T01:26:27.008Z,100.00
2023-02-18T01:28:56.763Z,100.00
2023-02-18T01:31:27.007Z,100.00
2023-02-18T01:33:55.153Z,100.00
2023-02-18T01:36:23.293Z,100.00
2023-02-18T01:38:51.547Z,100.00
2023-02-18T01:41:20.236Z,100.00
2023-02-18T01:43:49.790Z,100.00
2023-02-18T01:46:19.853Z,100.00
2023-02-18T01:48:52.402Z,100.00
2023-02-18T01:51:24.552Z,100.00
2023-02-18T01:53:56.227Z,100.00
2023-02-18T01:56:29.049Z,100.00
2023-02-18T01:58:58.638Z,100.00
2023-02-18T02:01:26.822Z,100.00
2023-02-18T02:03:55.352Z,100.00
2023-02-18T02:06:23.738Z,100.00
2023-02-18T02:08:53.946Z,100.00
2023-02-18T02:11:41.298Z,100.00
2023-02-18T02:14:35.306Z,100.00
2023-02-18T02:17:38.190Z,100.00
2023-02-18T02:20:19.506Z,100.00
2023-02-18T02:23:06.184Z,100.00
2023-02-18T02:25:53.154Z,100.00
2023-02-18T02:28:53.676Z,100.00
2023-02-18T02:31:24.439Z,100.00
2023-02-18T02:33:56.093Z,100.00
2023-02-18T02:36:28.350Z,100.00
2023-02-18T02:39:10.198Z,100.00
2023-02-18T02:42:13.859Z,100.00
2023-02-18T02:45:13.766Z,100.00
2023-02-18T02:48:12.100Z,100.00
2023-02-18T02:51:02.338Z,100.00
2023-02-18T02:53:32.123Z,100.00
2023-02-18T02:56:00.261Z,100.00
2023-02-18T02:58:28.761Z,100.00
2023-02-18T03:01:02.412Z,100.00
2023-02-18T03:03:57.505Z,100.00
2023-02-18T03:06:38.654Z,100.00
2023-02-18T03:09:42.574Z,100.00
2023-02-18T03:12:26.152Z,100.00
2023-02-18T03:15:04.896Z,100.00
2023-02-18T03:17:41.513Z,100.00
2023-02-18T03:20:26.072Z,100.00
2023-02-18T03:22:54.367Z,100.00
2023-02-18T03:25:22.878Z,100.00
2023-02-18T03:27:54.484Z,100.00
2023-02-18T03:30:29.378Z,100.00
2023-02-18T03:33:00.644Z,100.00
2023-02-18T03:35:29.424Z,100.00
2023-02-18T03:38:17.859Z,100.00
2023-02-18T03:40:46.052Z,100.00
2023-02-18T03:43:15.443Z,100.00
2023-02-18T03:45:44.103Z,100.00
2023-02-18T03:48:13.455Z,100.00
2023-02-18T03:50:42.516Z,100.00
2023-02-18T03:53:13.143Z,100.00
2023-02-18T03:55:42.685Z,100.00
2023-02-18T03:58:11.361Z,100.00
2023-02-18T04:00:40.336Z,100.00
2023-02-18T04:03:09.785Z,100.00
2023-02-18T04:05:39.629Z,100.00
2023-02-18T04:08:07.752Z,100.00
2023-02-18T04:10:38.037Z,100.00
2023-02-18T04:13:06.412Z,100.00
2023-02-18T04:15:35.228Z,100.00
2023-02-18T04:18:03.287Z,100.00
2023-02-18T04:20:31.621Z,100.00
2023-02-18T04:22:59.863Z,100.00
2023-02-18T04:25:27.876Z,100.00
2023-02-18T04:27:57.355Z,100.00
2023-02-18T04:30:25.537Z,100.00
2023-02-18T04:32:55.093Z,100.00
2023-02-18T04:35:23.225Z,100.00
2023-02-18T04:37:52.683Z,100.00
2023-02-18T04:40:20.856Z,100.00
2023-02-18T04:42:48.802Z,100.00
2023-02-18T04:45:17.567Z,100.00
2023-02-18T04:47:45.727Z,100.00
2023-02-18T04:50:14.025Z,100.00
2023-02-18T04:52:43.274Z,100.00
2023-02-18T04:55:12.377Z,100.00
2023-02-18T04:57:41.027Z,100.00
2023-02-18T05:00:09.926Z,100.00
2023-02-18T05:02:38.241Z,100.00
2023-02-18T05:05:08.025Z,100.00
2023-02-18T05:07:36.798Z,100.00
2023-02-18T05:10:05.217Z,100.00
2023-02-18T05:20:53.679Z,100.00
2023-02-18T05:23:22.198Z,100.00
2023-02-18T05:25:50.330Z,100.00
2023-02-18T05:28:20.002Z,100.00
2023-02-18T05:30:48.399Z,100.00
2023-02-18T05:33:16.500Z,100.00
2023-02-18T05:35:44.487Z,100.00
2023-02-18T05:38:12.610Z,100.00
2023-02-18T05:40:40.600Z,100.00
2023-02-18T05:43:08.904Z,100.00
2023-02-18T05:45:38.438Z,100.00
2023-02-18T05:48:06.466Z,100.00
2023-02-18T05:50:34.594Z,100.00
2023-02-18T05:53:02.645Z,100.00
2023-02-18T05:55:30.665Z,100.00
2023-02-18T05:57:59.560Z,100.00
2023-02-18T06:00:29.956Z,100.00
2023-02-18T06:02:59.205Z,100.00
2023-02-18T06:05:27.525Z,100.00
2023-02-18T06:07:56.858Z,100.00
2023-02-18T06:10:25.435Z,100.00
2023-02-18T06:12:53.951Z,100.00
2023-02-18T06:15:22.244Z,100.00
2023-02-18T06:17:50.987Z,100.00
2023-02-18T06:20:19.035Z,100.00
2023-02-18T06:22:47.252Z,100.00
2023-02-18T06:25:15.292Z,100.00
2023-02-18T06:27:45.036Z,100.00
2023-02-18T06:30:13.394Z,100.00
2023-02-18T06:32:41.610Z,100.00
2023-02-18T06:35:09.635Z,100.00
2023-02-18T06:37:38.661Z,100.00
2023-02-18T06:40:08.330Z,100.00
2023-02-18T06:42:36.891Z,100.00
2023-02-18T06:45:08.318Z,100.00
2023-02-18T06:47:36.291Z,100.00
2023-02-18T06:50:04.789Z,100.00
2023-02-18T06:52:34.585Z,100.00
2023-02-18T06:55:02.667Z,100.00
2023-02-18T06:57:31.449Z,100.00
2023-02-18T09:03:46.062Z,99.14
2023-02-18T09:06:14.353Z,98.27
2023-02-18T09:08:45.212Z,97.51
2023-02-18T09:11:18.378Z,96.86
2023-02-18T09:13:47.434Z,95.09
2023-02-18T09:16:20.079Z,94.57
2023-02-18T09:18:48.791Z,93.93
2023-02-18T09:21:20.888Z,92.18
2023-02-18T09:23:49.686Z,91.43
2023-02-18T09:26:21.427Z,91.26
2023-02-18T09:28:50.402Z,92.63
2023-02-18T09:31:21.823Z,93.75
2023-02-18T09:33:52.533Z,95.04
2023-02-18T09:36:21.113Z,96.32
2023-02-18T09:38:49.409Z,97.33
2023-02-18T09:41:18.132Z,97.97
2023-02-18T09:43:48.490Z,98.76
2023-02-18T09:46:30.632Z,98.84
2023-02-18T09:49:04.151Z,98.86
2023-02-18T09:51:34.682Z,99.17
2023-02-18T09:54:03.069Z,98.18
2023-02-18T09:56:36.378Z,96.87
2023-02-18T09:59:06.905Z,96.14
2023-02-18T10:01:38.031Z,95.50
2023-02-18T10:04:13.698Z,94.06
2023-02-18T10:06:42.238Z,93.11
2023-02-18T10:09:31.876Z,93.02
2023-02-18T10:12:08.445Z,92.24
2023-02-18T10:14:39.782Z,91.34
2023-02-18T10:17:09.578Z,91.06
2023-02-18T10:19:38.949Z,89.76
2023-02-18T10:22:08.210Z,88.06
2023-02-18T10:24:50.784Z,87.34
2023-02-18T10:27:33.938Z,87.56
2023-02-18T10:30:23.042Z,87.49
2023-02-18T10:33:23.109Z,87.01
2023-02-18T10:35:54.352Z,87.02
2023-02-18T10:38:33.381Z,87.37
2023-02-18T10:41:15.078Z,88.18
2023-02-18T10:44:18.014Z,88.26
2023-02-18T10:46:55.622Z,88.96
2023-02-18T10:49:56.932Z,90.63
2023-02-18T10:52:30.251Z,91.87
2023-02-18T10:55:10.905Z,93.14
2023-02-18T10:57:50.676Z,94.33
2023-02-18T11:00:24.169Z,94.99
2023-02-18T11:03:24.049Z,95.52
2023-02-18T11:05:56.970Z,95.15
2023-02-18T11:08:33.372Z,94.29
2023-02-18T11:11:01.644Z,90.93
2023-02-18T11:13:32.180Z,89.39
2023-02-18T11:16:07.037Z,86.99
2023-02-18T11:18:37.505Z,86.07
2023-02-18T11:21:31.924Z,83.59
2023-02-18T11:24:10.074Z,83.15
2023-02-18T11:26:39.335Z,80.95
2023-02-18T11:29:12.900Z,80.49
2023-02-18T11:31:52.361Z,79.25
2023-02-18T11:34:22.704Z,79.17
2023-02-18T11:36:51.461Z,79.30
2023-02-18T11:39:26.977Z,78.65
2023-02-18T11:41:58.137Z,78.19
2023-02-18T11:44:35.109Z,77.75
2023-02-18T11:47:09.493Z,77.25
2023-02-18T11:49:37.724Z,77.56
2023-02-18T11:52:27.556Z,76.98
2023-02-18T11:55:06.909Z,74.83
2023-02-18T11:57:37.714Z,74.27
2023-02-18T12:00:21.589Z,72.87
2023-02-18T12:02:50.500Z,72.17
2023-02-18T12:05:22.388Z,71.56
2023-02-18T12:07:58.048Z,71.23
2023-02-18T12:10:56.072Z,71.49
2023-02-18T12:13:28.350Z,71.63
2023-02-18T12:16:09.714Z,72.66
2023-02-18T12:19:19.841Z,74.49
2023-02-18T12:22:09.798Z,75.07
2023-02-18T12:24:53.633Z,75.89
2023-02-18T12:27:41.326Z,76.25
2023-02-18T12:30:45.230Z,76.59
2023-02-18T12:33:25.755Z,76.72
2023-02-18T12:36:09.948Z,76.40
2023-02-18T12:38:44.444Z,75.59
2023-02-18T12:41:15.352Z,74.72
2023-02-18T12:43:51.537Z,74.74
2023-02-18T12:46:19.789Z,74.51
2023-02-18T12:49:06.620Z,73.54
2023-02-18T12:51:46.707Z,72.29
2023-02-18T12:54:21.125Z,72.27
2023-02-18T12:57:19.927Z,71.63
2023-02-18T13:00:36.276Z,71.79
2023-02-18T13:03:34.007Z,73.53
2023-02-18T13:06:55.299Z,76.66
2023-02-18T13:09:44.749Z,79.79
2023-02-18T13:12:54.996Z,82.15
2023-02-18T13:15:37.709Z,84.72
2023-02-18T13:18:14.017Z,86.37
2023-02-18T13:20:44.672Z,87.55
2023-02-18T13:23:18.358Z,88.73
2023-02-18T13:25:46.530Z,88.53
2023-02-18T13:29:12.331Z,88.71
2023-02-18T13:31:52.842Z,87.58
2023-02-18T13:34:49.891Z,87.40
2023-02-18T13:37:23.154Z,87.41
2023-02-18T13:39:57.073Z,86.91
2023-02-18T13:42:31.157Z,86.61
2023-02-18T13:44:59.978Z,85.69
2023-02-18T13:47:38.334Z,85.53
2023-02-18T13:50:33.552Z,85.14
2023-02-18T13:53:08.001Z,85.23
2023-02-18T13:56:07.580Z,84.91
2023-02-18T13:58:42.751Z,82.90
2023-02-18T14:01:11.753Z,82.84
2023-02-18T14:03:42.803Z,82.76
2023-02-18T14:06:41.300Z,81.93
2023-02-18T14:09:14.019Z,82.01
2023-02-18T14:11:49.631Z,81.93
2023-02-18T14:14:26.913Z,81.98
2023-02-18T14:17:15.250Z,81.55
2023-02-18T14:19:44.023Z,81.46
2023-02-18T14:22:45.363Z,81.75
2023-02-18T14:25:22.649Z,81.56
2023-02-18T14:27:54.781Z,80.92
2023-02-18T14:30:28.613Z,81.18
2023-02-18T14:32:59.545Z,81.02
2023-02-18T14:35:43.383Z,80.24
2023-02-18T14:38:17.826Z,79.82
2023-02-18T14:40:57.479Z,79.68
2023-02-18T14:43:46.837Z,79.31
2023-02-18T14:46:20.819Z,78.18
2023-02-18T14:49:08.348Z,77.73
2023-02-18T14:51:37.706Z,77.49
2023-02-18T14:54:06.883Z,77.17
2023-02-18T14:56:38.813Z,76.80
2023-02-18T14:59:08.963Z,76.43
2023-02-18T15:01:39.387Z,76.00
2023-02-18T15:04:12.422Z,75.64
2023-02-18T15:06:41.434Z,75.54
2023-02-18T15:09:27.704Z,75.38
2023-02-18T15:12:02.536Z,75.08
2023-02-18T15:14:32.297Z,74.97
2023-02-18T15:17:07.712Z,74.74
2023-02-18T15:19:43.181Z,74.43
2023-02-18T15:22:19.265Z,74.22
2023-02-18T15:24:48.380Z,73.75
2023-02-18T15:27:26.887Z,73.80
2023-02-18T15:30:29.357Z,73.86
2023-02-18T15:32:59.134Z,73.78
2023-02-18T15:35:31.777Z,73.71
2023-02-18T15:38:00.714Z,73.24
2023-02-18T15:40:31.500Z,72.96
2023-02-18T15:43:00.820Z,72.46
2023-02-18T15:45:37.200Z,72.34
2023-02-18T15:48:06.242Z,72.05
2023-02-18T15:50:38.832Z,71.91
2023-02-18T15:53:11.017Z,71.63
2023-02-18T15:55:43.299Z,71.82
2023-02-18T15:58:16.398Z,71.76
2023-02-18T16:00:58.301Z,71.57
2023-02-18T16:03:33.037Z,71.45
2023-02-18T16:06:12.825Z,71.23
2023-02-18T16:08:41.310Z,70.77
2023-02-18T16:11:11.305Z,70.63
2023-02-18T16:13:46.193Z,70.60
2023-02-18T16:16:34.965Z,70.44
2023-02-18T16:19:04.822Z,70.12
2023-02-18T16:21:39.536Z,70.22
2023-02-18T16:24:27.172Z,70.54
2023-02-18T16:26:59.258Z,70.50
2023-02-18T16:29:35.674Z,70.62
2023-02-18T16:32:03.911Z,70.55
2023-02-18T16:34:32.284Z,70.43
2023-02-18T16:37:19.268Z,70.58
2023-02-18T16:39:49.878Z,70.62
2023-02-18T16:42:19.228Z,70.63
2023-02-18T16:44:48.239Z,70.67
2023-02-18T16:47:17.614Z,70.29
2023-02-18T16:49:47.267Z,70.29
2023-02-18T16:52:18.881Z,70.24
2023-02-18T16:54:49.443Z,70.30
2023-02-18T16:57:19.507Z,70.33
2023-02-18T16:59:48.786Z,70.37
2023-02-18T17:02:21.255Z,70.32
2023-02-18T17:04:49.958Z,70.46
2023-02-18T17:07:18.713Z,70.56
2023-02-18T17:09:47.806Z,70.30
2023-02-18T17:12:16.544Z,70.44
2023-02-18T17:14:44.615Z,70.55
2023-02-18T17:17:14.077Z,70.46
2023-02-18T17:19:42.102Z,70.46
2023-02-18T17:22:13.146Z,70.41
2023-02-18T17:24:41.168Z,70.18
2023-02-18T17:27:11.162Z,70.04
2023-02-18T17:29:39.632Z,69.93
2023-02-18T17:32:11.616Z,70.01
2023-02-18T17:34:41.156Z,70.18
2023-02-18T17:37:12.920Z,70.12
2023-02-18T17:39:41.482Z,70.22
2023-02-18T17:42:15.365Z,70.52
2023-02-18T17:44:45.708Z,70.47
2023-02-18T17:47:13.861Z,70.57
2023-02-18T17:49:42.447Z,70.66
2023-02-18T17:52:29.496Z,70.54
2023-02-18T17:54:58.353Z,70.55
2023-02-18T17:57:26.572Z,70.62
2023-02-18T17:59:57.420Z,70.29
2023-02-18T18:02:29.599Z,70.49
2023-02-18T18:04:57.708Z,70.23
2023-02-18T18:07:25.834Z,70.13
2023-02-18T18:09:55.225Z,70.14
2023-02-18T18:12:23.385Z,69.92
2023-02-18T18:14:52.942Z,70.09
2023-02-18T18:17:21.709Z,69.90
2023-02-18T18:19:50.470Z,69.83
2023-02-18T18:22:19.113Z,69.97
2023-02-18T18:24:47.203Z,69.87
2023-02-18T18:27:15.245Z,69.83
2023-02-18T18:29:43.329Z,69.83
2023-02-18T18:32:11.448Z,69.76
2023-02-18T18:34:40.138Z,69.80
2023-02-18T18:37:08.558Z,69.76
2023-02-18T18:39:37.442Z,69.72
2023-02-18T18:42:07.038Z,69.61
2023-02-18T18:44:35.530Z,69.48
2023-02-18T18:47:04.592Z,69.51
2023-02-18T18:49:35.514Z,69.47
2023-02-18T18:52:04.228Z,69.38
2023-02-18T18:54:32.305Z,69.24
2023-02-18T18:57:01.145Z,69.15
2023-02-18T18:59:30.703Z,68.98
2023-02-18T19:01:59.367Z,68.97
2023-02-18T19:04:27.834Z,68.62
2023-02-18T19:06:56.329Z,68.86
2023-02-18T19:09:24.409Z,68.85
2023-02-18T19:11:52.481Z,68.67
2023-02-18T19:14:22.155Z,68.82
2023-02-18T19:16:56.372Z,68.59
2023-02-18T19:19:25.168Z,68.39
2023-02-18T19:21:53.513Z,68.32
2023-02-18T19:24:22.079Z,68.27
2023-02-18T19:26:50.703Z,68.16
2023-02-18T19:29:20.757Z,67.60
2023-02-18T19:31:50.515Z,67.63
2023-02-18T19:34:24.498Z,67.41
2023-02-18T19:36:54.082Z,67.48
2023-02-18T19:39:23.176Z,67.57
2023-02-18T19:41:51.319Z,67.41
2023-02-18T19:44:20.153Z,67.08
2023-02-18T19:46:48.336Z,67.22
2023-02-18T19:49:16.346Z,67.17
2023-02-18T19:51:44.573Z,67.05
2023-02-18T19:54:12.760Z,66.77
2023-02-18T19:56:40.884Z,66.75
2023-02-18T19:59:09.009Z,66.67
2023-02-18T20:01:37.387Z,66.49
2023-02-18T20:04:05.723Z,66.47
2023-02-18T20:06:34.005Z,66.28
2023-02-18T20:09:02.810Z,66.18
2023-02-18T20:11:33.979Z,65.92
2023-02-18T20:14:02.589Z,65.95
2023-02-18T20:16:30.610Z,65.88
2023-02-18T20:18:59.794Z,65.87
2023-02-18T20:21:28.201Z,65.71
2023-02-18T20:23:56.264Z,65.74
2023-02-18T20:26:25.048Z,65.49
2023-02-18T20:28:53.037Z,65.47
2023-02-18T20:31:21.078Z,65.13
2023-02-18T20:33:49.180Z,65.20
2023-02-18T20:36:17.288Z,65.49
2023-02-18T20:38:45.323Z,65.16
2023-02-18T20:41:14.579Z,65.18
2023-02-18T20:43:43.743Z,64.94
2023-02-18T20:46:14.019Z,64.96
2023-02-18T20:48:42.285Z,64.65
2023-02-18T20:51:13.591Z,64.74
2023-02-18T20:53:43.516Z,64.52
2023-02-18T20:56:11.741Z,64.43
2023-02-18T20:58:41.434Z,64.18
2023-02-18T21:01:11.463Z,64.08
2023-02-18T21:03:42.750Z,64.08
2023-02-18T21:06:13.968Z,64.22
2023-02-18T21:08:44.138Z,64.22
2023-02-18T21:11:20.231Z,64.24
2023-02-18T21:13:49.056Z,64.40
2023-02-18T21:16:17.730Z,64.47
2023-02-18T21:18:46.002Z,64.54
2023-02-18T21:21:14.884Z,64.84
2023-02-18T21:23:46.931Z,64.93
2023-02-18T21:26:16.975Z,65.11
2023-02-18T21:28:48.878Z,65.08
2023-02-18T21:31:19.109Z,65.27
2023-02-18T21:33:47.254Z,65.54
2023-02-18T21:36:15.869Z,65.59
2023-02-18T21:38:44.798Z,65.68
2023-02-18T21:41:13.019Z,65.72
2023-02-18T21:43:43.951Z,65.79
2023-02-18T21:46:32.814Z,65.94
2023-02-18T21:49:07.049Z,66.05
2023-02-18T21:52:19.137Z,66.06
2023-02-18T21:54:48.634Z,66.23
2023-02-18T21:57:18.940Z,66.36
2023-02-18T21:59:47.708Z,66.38
2023-02-18T22:02:23.616Z,66.54
2023-02-18T22:04:52.722Z,66.74
2023-02-18T22:07:23.747Z,66.70
2023-02-18T22:09:53.793Z,66.83
2023-02-18T22:12:22.742Z,67.05
2023-02-18T22:14:51.261Z,67.03
2023-02-18T22:17:19.416Z,67.20
2023-02-18T22:19:50.020Z,67.38
2023-02-18T22:22:18.493Z,67.39
2023-02-18T22:24:46.467Z,67.68
2023-02-18T22:27:14.691Z,67.94
2023-02-18T22:29:44.088Z,68.05
2023-02-18T22:32:12.417Z,68.36
2023-02-18T22:34:40.529Z,68.43
2023-02-18T22:37:09.212Z,68.77
2023-02-18T22:39:37.211Z,69.00
2023-02-18T22:42:05.360Z,69.09
2023-02-18T22:44:33.944Z,69.38
2023-02-18T22:47:01.889Z,69.41
2023-02-18T22:49:30.265Z,69.54
2023-02-18T22:51:59.204Z,69.72
2023-02-18T22:54:27.415Z,69.87
2023-02-18T22:56:55.485Z,69.88
2023-02-18T22:59:23.901Z,70.00
2023-02-18T23:01:53.228Z,70.06
2023-02-18T23:04:21.846Z,70.09
2023-02-18T23:06:50.083Z,69.96
2023-02-18T23:09:23.290Z,70.02
2023-02-18T23:11:52.080Z,70.01
2023-02-18T23:14:22.956Z,70.13
2023-02-18T23:17:12.869Z,70.08
2023-02-18T23:19:42.424Z,70.14
2023-02-18T23:22:11.360Z,70.24
2023-02-18T23:24:41.363Z,70.42
2023-02-18T23:27:10.323Z,70.40
2023-02-18T23:29:38.588Z,70.34
2023-02-18T23:32:06.956Z,70.41
2023-02-18T23:34:36.012Z,70.44
2023-02-18T23:37:05.936Z,70.39
2023-02-18T23:39:34.779Z,70.33
2023-02-18T23:42:02.984Z,70.23
2023-02-18T23:44:31.221Z,70.00
2023-02-18T23:47:00.304Z,69.92
2023-02-18T23:49:29.370Z,69.88
2023-02-18T23:51:58.143Z,69.89
2023-02-18T23:54:26.843Z,69.91
2023-02-18T23:56:55.900Z,69.96
2023-02-18T23:59:24.888Z,70.12
